createdAt,value
2018-04-14T00:00:24.679Z,43.90
2018-04-14T00:00:56.463Z,44.00
2018-04-14T00:01:28.202Z,44.00
2018-04-14T00:01:59.935Z,44.00
2018-04-14T00:02:31.693Z,43.80
2018-04-14T00:03:03.453Z,44.50
2018-04-14T00:03:35.437Z,43.90
2018-04-14T00:04:07.350Z,43.90
2018-04-14T00:04:39.077Z,43.80
2018-04-14T00:05:10.889Z,43.80
2018-04-14T00:05:43.423Z,43.80
2018-04-14T00:06:15.940Z,43.80
2018-04-14T00:06:47.682Z,43.80
2018-04-14T00:07:19.489Z,43.70
2018-04-14T00:07:52.070Z,43.90
2018-04-14T00:08:24.565Z,43.80
2018-04-14T00:08:56.334Z,43.90
2018-04-14T00:09:28.062Z,43.90
2018-04-14T00:09:59.820Z,44.00
2018-04-14T00:10:31.570Z,44.00
2018-04-14T00:11:04.075Z,43.90
2018-04-14T00:11:35.819Z,43.90
2018-04-14T00:12:07.554Z,44.00
2018-04-14T00:12:39.295Z,43.90
2018-04-14T00:13:11.030Z,43.90
2018-04-14T00:13:42.770Z,44.00
2018-04-14T00:14:14.513Z,43.90
2018-04-14T00:14:47.006Z,44.00
2018-04-14T00:15:18.747Z,44.00
2018-04-14T00:15:50.491Z,44.00
2018-04-14T00:16:22.226Z,44.00
2018-04-14T00:16:53.958Z,44.00
2018-04-14T00:17:25.702Z,44.00
2018-04-14T00:17:57.570Z,44.00
2018-04-14T00:18:29.311Z,44.00
2018-04-14T00:19:01.054Z,44.00
2018-04-14T00:19:32.795Z,44.00
2018-04-14T00:20:04.549Z,44.00
2018-04-14T00:20:36.282Z,44.00
2018-04-14T00:21:08.049Z,44.00
2018-04-14T00:21:39.790Z,43.90
2018-04-14T00:22:11.539Z,44.00
2018-04-14T00:22:43.299Z,43.90
2018-04-14T00:23:15.070Z,43.90
2018-04-14T00:23:47.566Z,43.90
2018-04-14T00:24:19.312Z,43.90
2018-04-14T00:24:51.055Z,43.90
2018-04-14T00:25:22.806Z,44.00
2018-04-14T00:25:54.565Z,44.00
2018-04-14T00:26:26.298Z,44.10
2018-04-14T00:26:58.049Z,44.20
2018-04-14T00:27:29.807Z,44.10
2018-04-14T00:28:01.550Z,44.10
2018-04-14T00:28:33.293Z,44.20
2018-04-14T00:29:05.040Z,44.20
2018-04-14T00:29:36.795Z,44.20
2018-04-14T00:30:08.535Z,44.30
2018-04-14T00:30:40.274Z,44.30
2018-04-14T00:31:12.015Z,44.30
2018-04-14T00:31:43.752Z,44.30
2018-04-14T00:32:15.486Z,44.30
2018-04-14T00:32:47.248Z,44.40
2018-04-14T00:33:18.985Z,44.40
2018-04-14T00:33:50.716Z,44.40
2018-04-14T00:34:22.459Z,44.50
2018-04-14T00:34:54.189Z,44.50
2018-04-14T00:35:25.930Z,44.50
2018-04-14T00:35:57.662Z,44.50
2018-04-14T00:36:29.579Z,44.50
2018-04-14T00:37:01.325Z,44.50
2018-04-14T00:37:34.593Z,44.60
2018-04-14T00:38:06.338Z,44.60
2018-04-14T00:38:38.081Z,44.50
2018-04-14T00:39:09.835Z,44.50
2018-04-14T00:39:41.626Z,44.50
2018-04-14T00:40:13.512Z,44.40
2018-04-14T00:40:45.306Z,44.40
2018-04-14T00:41:17.813Z,44.40
2018-04-14T00:41:49.539Z,44.40
2018-04-14T00:42:21.281Z,44.40
2018-04-14T00:42:53.003Z,44.40
2018-04-14T00:43:25.515Z,44.60
2018-04-14T00:43:57.258Z,44.50
2018-04-14T00:44:28.995Z,44.50
2018-04-14T00:45:00.726Z,44.50
2018-04-14T00:45:32.472Z,44.50
2018-04-14T00:46:04.222Z,44.70
2018-04-14T00:46:35.968Z,44.60
2018-04-14T00:47:07.694Z,44.70
2018-04-14T00:47:39.447Z,44.70
2018-04-14T00:48:11.221Z,44.70
2018-04-14T00:48:43.552Z,44.80
2018-04-14T00:49:16.215Z,45.40
2018-04-14T00:49:47.946Z,44.90
2018-04-14T00:50:19.693Z,45.00
2018-04-14T00:50:51.426Z,44.90
2018-04-14T00:51:23.934Z,45.00
2018-04-14T00:51:55.865Z,45.00
2018-04-14T00:52:27.608Z,44.80
2018-04-14T00:52:59.351Z,45.00
2018-04-14T00:53:31.200Z,45.00
2018-04-14T00:54:03.706Z,44.90
2018-04-14T00:54:35.467Z,44.80
2018-04-14T00:55:07.278Z,44.80
2018-04-14T00:55:39.014Z,44.80
2018-04-14T00:56:10.806Z,44.70
2018-04-14T00:56:42.526Z,44.70
2018-04-14T00:57:14.263Z,44.70
2018-04-14T00:57:46.010Z,44.70
2018-04-14T00:58:17.738Z,44.80
2018-04-14T00:58:49.561Z,44.80
2018-04-14T00:59:22.022Z,44.80
2018-04-14T00:59:53.785Z,44.80
2018-04-14T01:00:25.521Z,44.80
2018-04-14T01:00:57.264Z,44.70
2018-04-14T01:01:29.008Z,44.60
2018-04-14T01:02:00.754Z,44.50
2018-04-14T01:02:32.502Z,44.50
2018-04-14T01:03:04.246Z,44.50
2018-04-14T01:03:36.020Z,44.40
2018-04-14T01:04:07.747Z,44.40
2018-04-14T01:04:39.492Z,44.50
2018-04-14T01:05:11.234Z,44.50
2018-04-14T01:05:42.977Z,44.50
2018-04-14T01:06:14.722Z,44.60
2018-04-14T01:06:46.472Z,44.60
2018-04-14T01:07:18.214Z,44.60
2018-04-14T01:07:49.950Z,44.50
2018-04-14T01:08:21.691Z,44.50
2018-04-14T01:08:53.426Z,44.60
2018-04-14T01:09:25.303Z,44.60
2018-04-14T01:09:57.954Z,44.50
2018-04-14T01:10:29.737Z,44.50
2018-04-14T01:11:01.453Z,44.50
2018-04-14T01:11:33.199Z,44.50
2018-04-14T01:12:04.945Z,44.40
2018-04-14T01:12:36.682Z,44.40
2018-04-14T01:13:08.427Z,44.20
2018-04-14T01:13:40.169Z,44.30
2018-04-14T01:14:11.912Z,44.20
2018-04-14T01:14:43.687Z,44.10
2018-04-14T01:15:15.428Z,44.00
2018-04-14T01:15:47.178Z,44.20
2018-04-14T01:16:18.909Z,44.10
2018-04-14T01:16:50.650Z,44.10
2018-04-14T01:17:22.414Z,44.10
2018-04-14T01:17:54.927Z,44.10
2018-04-14T01:18:26.656Z,44.00
2018-04-14T01:18:58.391Z,44.00
2018-04-14T01:19:30.131Z,44.00
2018-04-14T01:20:02.846Z,44.10
2018-04-14T01:20:34.613Z,44.00
2018-04-14T01:21:07.142Z,44.10
2018-04-14T01:21:38.905Z,44.10
2018-04-14T01:22:10.692Z,44.20
2018-04-14T01:22:43.216Z,44.10
2018-04-14T01:23:15.198Z,44.10
2018-04-14T01:23:47.711Z,44.00
2018-04-14T01:24:19.597Z,44.00
2018-04-14T01:24:51.334Z,44.10
2018-04-14T01:25:23.077Z,44.10
2018-04-14T01:25:54.821Z,44.60
2018-04-14T01:26:26.566Z,44.00
2018-04-14T01:26:58.299Z,44.10
2018-04-14T01:27:30.070Z,44.10
2018-04-14T01:28:02.578Z,44.00
2018-04-14T01:28:34.321Z,44.00
2018-04-14T01:29:06.050Z,44.00
2018-04-14T01:29:37.799Z,44.10
2018-04-14T01:30:09.541Z,44.00
2018-04-14T01:30:41.484Z,44.10
2018-04-14T01:31:13.205Z,44.10
2018-04-14T01:31:45.718Z,44.00
2018-04-14T01:32:17.461Z,44.00
2018-04-14T01:32:49.223Z,44.10
2018-04-14T01:33:20.954Z,44.10
2018-04-14T01:33:52.698Z,44.00
2018-04-14T01:34:24.465Z,43.90
2018-04-14T01:34:56.208Z,43.90
2018-04-14T01:35:27.941Z,44.00
2018-04-14T01:35:59.689Z,44.00
2018-04-14T01:36:31.435Z,43.80
2018-04-14T01:37:03.173Z,43.80
2018-04-14T01:37:34.917Z,43.90
2018-04-14T01:38:06.703Z,43.90
2018-04-14T01:38:38.430Z,44.00
2018-04-14T01:39:10.166Z,44.00
2018-04-14T01:39:41.899Z,44.00
2018-04-14T01:40:13.626Z,44.10
2018-04-14T01:40:45.375Z,44.10
2018-04-14T01:41:17.126Z,44.10
2018-04-14T01:41:48.866Z,44.10
2018-04-14T01:42:20.614Z,44.00
2018-04-14T01:42:52.363Z,44.10
2018-04-14T01:43:24.102Z,44.10
2018-04-14T01:43:56.027Z,44.10
2018-04-14T01:44:27.755Z,44.10
2018-04-14T01:44:59.492Z,44.10
2018-04-14T01:45:31.258Z,44.20
2018-04-14T01:46:03.006Z,44.20
2018-04-14T01:46:34.742Z,44.20
2018-04-14T01:47:06.478Z,44.20
2018-04-14T01:47:38.217Z,44.10
2018-04-14T01:48:10.782Z,44.20
2018-04-14T01:48:42.546Z,44.00
2018-04-14T01:49:14.286Z,44.00
2018-04-14T01:49:46.007Z,44.20
2018-04-14T01:50:18.602Z,44.20
2018-04-14T01:50:50.331Z,44.20
2018-04-14T01:51:22.062Z,44.20
2018-04-14T01:51:54.569Z,44.20
2018-04-14T01:52:26.317Z,44.20
2018-04-14T01:52:58.053Z,44.10
2018-04-14T01:53:29.810Z,44.20
2018-04-14T01:54:01.543Z,44.10
2018-04-14T01:54:33.292Z,44.10
2018-04-14T01:55:05.033Z,44.00
2018-04-14T01:55:36.775Z,44.10
2018-04-14T01:56:08.524Z,44.70
2018-04-14T01:56:40.255Z,44.00
2018-04-14T01:57:11.996Z,44.10
2018-04-14T01:57:43.724Z,43.90
2018-04-14T01:58:15.453Z,43.90
2018-04-14T01:58:47.197Z,44.00
2018-04-14T01:59:19.719Z,44.20
2018-04-14T01:59:51.457Z,44.10
2018-04-14T02:00:23.190Z,44.00
2018-04-14T02:00:54.935Z,43.90
2018-04-14T02:01:26.707Z,43.90
2018-04-14T02:01:58.438Z,43.90
2018-04-14T02:02:30.180Z,43.90
2018-04-14T02:03:01.948Z,43.80
2018-04-14T02:03:33.674Z,43.70
2018-04-14T02:04:05.435Z,43.70
2018-04-14T02:04:37.174Z,43.80
2018-04-14T02:05:08.915Z,43.70
2018-04-14T02:05:41.191Z,43.80
2018-04-14T02:06:13.022Z,43.90
2018-04-14T02:06:44.743Z,43.90
2018-04-14T02:07:16.485Z,44.10
2018-04-14T02:07:48.255Z,44.00
2018-04-14T02:08:19.971Z,44.00
2018-04-14T02:08:51.717Z,44.10
2018-04-14T02:09:23.494Z,44.00
2018-04-14T02:09:56.033Z,44.30
2018-04-14T02:10:27.796Z,44.00
2018-04-14T02:10:59.531Z,44.00
2018-04-14T02:11:31.282Z,44.00
2018-04-14T02:12:03.035Z,44.00
2018-04-14T02:12:34.778Z,44.10
2018-04-14T02:13:06.517Z,44.10
2018-04-14T02:13:38.236Z,44.00
2018-04-14T02:14:09.977Z,44.00
2018-04-14T02:14:41.752Z,43.90
2018-04-14T02:15:13.491Z,43.80
2018-04-14T02:15:45.219Z,43.90
2018-04-14T02:16:16.978Z,43.70
2018-04-14T02:16:48.724Z,43.70
2018-04-14T02:17:20.458Z,43.70
2018-04-14T02:17:52.203Z,43.50
2018-04-14T02:18:23.947Z,43.50
2018-04-14T02:18:55.702Z,43.40
2018-04-14T02:19:27.447Z,43.60
2018-04-14T02:19:59.217Z,43.50
2018-04-14T02:20:31.739Z,43.60
2018-04-14T02:21:03.479Z,43.60
2018-04-14T02:21:35.215Z,43.70
2018-04-14T02:22:06.948Z,43.80
2018-04-14T02:22:39.741Z,43.90
2018-04-14T02:23:11.495Z,43.80
2018-04-14T02:23:43.239Z,44.00
2018-04-14T02:24:15.053Z,43.80
2018-04-14T02:24:47.518Z,43.80
2018-04-14T02:25:19.262Z,43.80
2018-04-14T02:25:51.006Z,43.70
2018-04-14T02:26:22.756Z,43.80
2018-04-14T02:26:54.489Z,43.80
2018-04-14T02:27:26.263Z,43.80
2018-04-14T02:27:58.000Z,43.80
2018-04-14T02:28:29.768Z,43.70
2018-04-14T02:29:01.521Z,43.70
2018-04-14T02:29:33.241Z,43.80
2018-04-14T02:30:04.978Z,43.60
2018-04-14T02:30:36.745Z,43.60
2018-04-14T02:31:08.482Z,43.70
2018-04-14T02:31:40.219Z,43.70
2018-04-14T02:32:11.977Z,43.70
2018-04-14T02:32:43.748Z,43.90
2018-04-14T02:33:16.247Z,43.80
2018-04-14T02:33:47.991Z,43.80
2018-04-14T02:34:19.743Z,43.70
2018-04-14T02:34:51.486Z,43.50
2018-04-14T02:35:23.224Z,43.80
2018-04-14T02:35:54.978Z,43.60
2018-04-14T02:36:26.707Z,43.60
2018-04-14T02:36:58.488Z,43.70
2018-04-14T02:37:30.413Z,43.70
2018-04-14T02:38:02.153Z,43.70
2018-04-14T02:38:33.890Z,43.90
2018-04-14T02:39:05.692Z,43.90
2018-04-14T02:39:38.204Z,44.00
2018-04-14T02:40:10.157Z,43.80
2018-04-14T02:40:41.895Z,43.90
2018-04-14T02:41:13.640Z,43.80
2018-04-14T02:41:45.575Z,43.80
2018-04-14T02:42:17.322Z,43.80
2018-04-14T02:42:49.066Z,43.70
2018-04-14T02:43:20.796Z,43.70
2018-04-14T02:43:52.545Z,43.60
2018-04-14T02:44:24.380Z,43.50
2018-04-14T02:44:56.890Z,43.50
2018-04-14T02:45:28.657Z,43.50
2018-04-14T02:46:00.387Z,43.50
2018-04-14T02:46:32.118Z,43.40
2018-04-14T02:47:03.861Z,43.50
2018-04-14T02:47:35.592Z,43.50
2018-04-14T02:48:08.400Z,43.60
2018-04-14T02:48:40.150Z,43.60
2018-04-14T02:49:11.942Z,43.70
2018-04-14T02:49:43.682Z,43.70
2018-04-14T02:50:15.503Z,43.80
2018-04-14T02:50:48.044Z,43.80
2018-04-14T02:51:19.791Z,43.80
2018-04-14T02:51:51.549Z,43.70
2018-04-14T02:52:23.262Z,43.70
2018-04-14T02:52:54.995Z,43.80
2018-04-14T02:53:26.753Z,43.80
2018-04-14T02:53:58.478Z,43.70
2018-04-14T02:54:30.220Z,43.80
2018-04-14T02:55:01.975Z,43.80
2018-04-14T02:55:33.999Z,43.80
2018-04-14T02:56:06.524Z,43.70
2018-04-14T02:56:38.267Z,43.70
2018-04-14T02:57:10.027Z,43.80
2018-04-14T02:57:42.534Z,43.90
2018-04-14T02:58:14.278Z,43.80
2018-04-14T02:58:46.067Z,43.90
2018-04-14T02:59:18.582Z,43.80
2018-04-14T02:59:50.323Z,43.70
2018-04-14T03:00:22.065Z,43.70
2018-04-14T03:00:53.805Z,43.70
2018-04-14T03:01:25.545Z,43.70
2018-04-14T03:01:57.371Z,43.80
2018-04-14T03:02:29.975Z,43.80
2018-04-14T03:03:01.693Z,43.70
2018-04-14T03:03:33.430Z,43.70
2018-04-14T03:04:05.165Z,43.70
2018-04-14T03:04:37.660Z,43.90
2018-04-14T03:05:09.391Z,43.80
2018-04-14T03:05:41.149Z,43.90
2018-04-14T03:06:12.903Z,44.00
2018-04-14T03:06:44.865Z,44.00
2018-04-14T03:07:16.611Z,43.80
2018-04-14T03:07:48.362Z,43.70
2018-04-14T03:08:20.103Z,44.20
2018-04-14T03:08:51.890Z,43.60
2018-04-14T03:09:24.388Z,43.70
2018-04-14T03:09:56.136Z,43.70
2018-04-14T03:10:27.872Z,43.70
2018-04-14T03:10:59.618Z,43.70
2018-04-14T03:11:31.557Z,43.80
2018-04-14T03:12:03.294Z,43.90
2018-04-14T03:12:35.101Z,43.80
2018-04-14T03:13:06.824Z,43.80
2018-04-14T03:13:38.559Z,43.70
2018-04-14T03:14:10.289Z,43.90
2018-04-14T03:14:42.086Z,43.90
2018-04-14T03:15:13.830Z,43.90
2018-04-14T03:15:46.351Z,43.90
2018-04-14T03:16:18.138Z,43.90
2018-04-14T03:16:49.888Z,43.90
2018-04-14T03:17:21.614Z,43.70
2018-04-14T03:17:53.346Z,43.60
2018-04-14T03:18:25.085Z,43.60
2018-04-14T03:18:56.908Z,44.20
2018-04-14T03:19:29.369Z,43.80
2018-04-14T03:20:01.113Z,43.70
2018-04-14T03:20:32.865Z,43.70
2018-04-14T03:21:04.603Z,43.80
2018-04-14T03:21:36.348Z,43.60
2018-04-14T03:22:08.114Z,43.50
2018-04-14T03:22:39.821Z,43.50
2018-04-14T03:23:11.566Z,43.60
2018-04-14T03:23:43.292Z,43.40
2018-04-14T03:24:15.799Z,43.50
2018-04-14T03:24:47.542Z,43.50
2018-04-14T03:25:19.282Z,43.60
2018-04-14T03:25:51.046Z,43.50
2018-04-14T03:26:22.796Z,43.50
2018-04-14T03:26:54.577Z,43.50
2018-04-14T03:27:27.086Z,43.50
2018-04-14T03:27:58.830Z,43.40
2018-04-14T03:28:30.585Z,43.40
2018-04-14T03:29:02.326Z,43.40
2018-04-14T03:29:34.071Z,43.40
2018-04-14T03:30:05.882Z,43.40
2018-04-14T03:30:37.619Z,43.40
2018-04-14T03:31:09.357Z,43.50
2018-04-14T03:31:41.103Z,43.50
2018-04-14T03:32:13.635Z,43.60
2018-04-14T03:32:45.362Z,43.50
2018-04-14T03:33:17.098Z,43.50
2018-04-14T03:33:48.862Z,43.30
2018-04-14T03:34:20.605Z,43.30
2018-04-14T03:34:52.340Z,43.50
2018-04-14T03:35:24.115Z,43.40
2018-04-14T03:35:56.617Z,43.80
2018-04-14T03:36:28.377Z,43.50
2018-04-14T03:37:00.109Z,43.40
2018-04-14T03:37:31.882Z,43.50
2018-04-14T03:38:03.623Z,43.40
2018-04-14T03:38:35.363Z,43.40
2018-04-14T03:39:07.106Z,43.50
2018-04-14T03:39:38.848Z,43.50
2018-04-14T03:40:10.596Z,43.50
2018-04-14T03:40:42.335Z,43.50
2018-04-14T03:41:14.077Z,43.40
2018-04-14T03:41:45.831Z,43.30
2018-04-14T03:42:17.573Z,43.40
2018-04-14T03:42:49.329Z,43.40
2018-04-14T03:43:21.088Z,43.40
2018-04-14T03:43:52.817Z,43.50
2018-04-14T03:44:24.550Z,43.50
2018-04-14T03:44:56.314Z,43.60
2018-04-14T03:45:28.083Z,43.60
2018-04-14T03:46:00.595Z,43.60
2018-04-14T03:46:32.335Z,43.50
2018-04-14T03:47:04.090Z,43.60
2018-04-14T03:47:35.826Z,43.60
2018-04-14T03:48:07.565Z,43.70
2018-04-14T03:48:39.309Z,43.50
2018-04-14T03:49:11.063Z,43.50
2018-04-14T03:49:42.809Z,43.60
2018-04-14T03:50:14.544Z,43.60
2018-04-14T03:50:46.303Z,43.60
2018-04-14T03:51:19.173Z,43.70
2018-04-14T03:51:50.918Z,43.70
2018-04-14T03:52:22.655Z,43.50
2018-04-14T03:52:54.457Z,43.50
2018-04-14T03:53:26.979Z,43.40
2018-04-14T03:53:58.737Z,43.40
2018-04-14T03:54:30.466Z,43.60
2018-04-14T03:55:02.205Z,43.60
2018-04-14T03:55:34.186Z,43.50
2018-04-14T03:56:05.915Z,43.60
2018-04-14T03:56:37.659Z,43.50
2018-04-14T03:57:09.398Z,43.40
2018-04-14T03:57:41.134Z,43.20
2018-04-14T03:58:12.878Z,43.30
2018-04-14T03:58:44.603Z,43.60
2018-04-14T03:59:16.341Z,43.70
2018-04-14T03:59:48.076Z,43.60
2018-04-14T04:00:19.812Z,43.40
2018-04-14T04:00:51.554Z,43.40
2018-04-14T04:01:23.305Z,43.40
2018-04-14T04:01:55.798Z,43.30
2018-04-14T04:02:27.542Z,43.30
2018-04-14T04:02:59.287Z,43.30
2018-04-14T04:03:31.077Z,43.30
2018-04-14T04:04:02.813Z,43.40
2018-04-14T04:04:34.544Z,43.40
2018-04-14T04:05:06.303Z,42.90
2018-04-14T04:05:38.027Z,43.40
2018-04-14T04:06:09.765Z,43.50
2018-04-14T04:06:41.508Z,43.40
2018-04-14T04:07:13.254Z,43.50
2018-04-14T04:07:44.977Z,43.50
2018-04-14T04:08:16.748Z,43.50
2018-04-14T04:08:48.495Z,43.50
2018-04-14T04:09:20.235Z,43.40
2018-04-14T04:09:51.962Z,43.30
2018-04-14T04:10:23.712Z,43.30
2018-04-14T04:10:55.453Z,43.20
2018-04-14T04:11:27.204Z,43.40
2018-04-14T04:11:58.947Z,43.50
2018-04-14T04:12:30.686Z,43.40
2018-04-14T04:13:02.437Z,43.30
2018-04-14T04:13:34.178Z,43.40
2018-04-14T04:14:05.963Z,43.40
2018-04-14T04:14:38.467Z,43.70
2018-04-14T04:15:10.210Z,43.40
2018-04-14T04:15:41.955Z,43.40
2018-04-14T04:16:13.890Z,43.40
2018-04-14T04:16:45.634Z,43.50
2018-04-14T04:17:17.362Z,43.40
2018-04-14T04:17:49.863Z,43.40
2018-04-14T04:18:21.632Z,43.30
2018-04-14T04:18:53.385Z,43.40
2018-04-14T04:19:25.123Z,43.40
2018-04-14T04:19:56.863Z,43.20
2018-04-14T04:20:28.597Z,43.30
2018-04-14T04:21:00.349Z,43.20
2018-04-14T04:21:32.090Z,43.20
2018-04-14T04:22:03.827Z,43.30
2018-04-14T04:22:35.574Z,43.30
2018-04-14T04:23:07.313Z,43.20
2018-04-14T04:23:39.056Z,43.30
2018-04-14T04:24:10.812Z,43.20
2018-04-14T04:24:42.551Z,43.20
2018-04-14T04:25:14.388Z,43.10
2018-04-14T04:25:46.100Z,43.20
2018-04-14T04:26:17.863Z,43.20
2018-04-14T04:26:49.812Z,43.20
2018-04-14T04:27:21.544Z,43.20
2018-04-14T04:27:54.050Z,43.30
2018-04-14T04:28:26.018Z,43.20
2018-04-14T04:28:57.757Z,43.30
2018-04-14T04:29:29.496Z,43.20
2018-04-14T04:30:01.228Z,43.20
2018-04-14T04:30:32.970Z,43.30
2018-04-14T04:31:04.988Z,43.20
2018-04-14T04:31:36.708Z,43.30
2018-04-14T04:32:09.233Z,43.50
2018-04-14T04:32:40.969Z,43.40
2018-04-14T04:33:12.757Z,43.40
2018-04-14T04:33:45.254Z,43.20
2018-04-14T04:34:16.997Z,43.20
2018-04-14T04:34:48.766Z,43.30
2018-04-14T04:35:20.694Z,43.20
2018-04-14T04:35:52.430Z,43.30
2018-04-14T04:36:24.229Z,43.20
2018-04-14T04:36:55.971Z,43.20
2018-04-14T04:37:27.702Z,43.20
2018-04-14T04:37:59.434Z,43.20
2018-04-14T04:38:31.181Z,43.20
2018-04-14T04:39:02.928Z,43.20
2018-04-14T04:39:34.654Z,43.10
2018-04-14T04:40:06.393Z,43.20
2018-04-14T04:40:38.142Z,43.30
2018-04-14T04:41:09.863Z,43.20
2018-04-14T04:41:41.603Z,43.00
2018-04-14T04:42:13.338Z,43.10
2018-04-14T04:42:45.848Z,43.10
2018-04-14T04:43:17.585Z,43.00
2018-04-14T04:43:49.323Z,43.10
2018-04-14T04:44:21.149Z,42.80
2018-04-14T04:44:52.896Z,42.90
2018-04-14T04:45:24.639Z,42.90
2018-04-14T04:45:56.389Z,42.90
2018-04-14T04:46:28.874Z,42.90
2018-04-14T04:47:00.618Z,42.90
2018-04-14T04:47:32.362Z,42.90
2018-04-14T04:48:04.087Z,43.10
2018-04-14T04:48:35.824Z,43.10
2018-04-14T04:49:07.550Z,43.00
2018-04-14T04:49:40.063Z,43.10
2018-04-14T04:50:11.836Z,43.10
2018-04-14T04:50:43.575Z,43.00
2018-04-14T04:51:15.319Z,43.20
2018-04-14T04:51:47.102Z,43.60
2018-04-14T04:52:18.869Z,43.00
2018-04-14T04:52:51.341Z,43.10
2018-04-14T04:53:23.075Z,43.00
2018-04-14T04:53:54.835Z,43.10
2018-04-14T04:54:26.590Z,43.10
2018-04-14T04:54:58.330Z,43.00
2018-04-14T04:55:30.081Z,43.10
2018-04-14T04:56:01.819Z,43.20
2018-04-14T04:56:33.563Z,43.10
2018-04-14T04:57:05.303Z,43.10
2018-04-14T04:57:37.052Z,43.20
2018-04-14T04:58:08.787Z,43.20
2018-04-14T04:58:40.518Z,43.20
2018-04-14T04:59:12.269Z,43.20
2018-04-14T04:59:44.013Z,43.10
2018-04-14T05:00:15.748Z,43.10
2018-04-14T05:00:47.523Z,43.10
2018-04-14T05:01:19.242Z,43.30
2018-04-14T05:01:50.994Z,43.20
2018-04-14T05:02:22.736Z,43.10
2018-04-14T05:02:54.479Z,43.10
2018-04-14T05:03:26.222Z,43.20
2018-04-14T05:03:57.949Z,43.20
2018-04-14T05:04:29.778Z,43.30
2018-04-14T05:05:02.291Z,43.20
2018-04-14T05:05:34.083Z,43.80
2018-04-14T05:06:06.587Z,43.10
2018-04-14T05:06:38.327Z,43.00
2018-04-14T05:07:10.124Z,42.90
2018-04-14T05:07:42.643Z,43.80
2018-04-14T05:08:14.362Z,43.00
2018-04-14T05:08:46.105Z,43.10
2018-04-14T05:09:17.917Z,43.20
2018-04-14T05:09:50.438Z,43.00
2018-04-14T05:10:22.245Z,43.00
2018-04-14T05:10:54.746Z,43.00
2018-04-14T05:11:26.481Z,43.00
2018-04-14T05:11:58.225Z,43.10
2018-04-14T05:12:29.998Z,43.10
2018-04-14T05:13:01.730Z,43.00
2018-04-14T05:13:33.485Z,42.90
2018-04-14T05:14:05.231Z,43.00
2018-04-14T05:14:36.975Z,42.90
2018-04-14T05:15:08.725Z,42.90
2018-04-14T05:15:40.452Z,43.00
2018-04-14T05:16:12.214Z,43.00
2018-04-14T05:16:43.949Z,42.90
2018-04-14T05:17:15.693Z,43.00
2018-04-14T05:17:47.463Z,42.90
2018-04-14T05:18:19.382Z,43.00
2018-04-14T05:18:51.135Z,43.20
2018-04-14T05:19:22.893Z,43.00
2018-04-14T05:19:54.660Z,43.20
2018-04-14T05:20:27.152Z,43.10
2018-04-14T05:20:58.924Z,43.10
2018-04-14T05:21:30.674Z,43.20
2018-04-14T05:22:02.435Z,43.40
2018-04-14T05:22:34.174Z,43.40
2018-04-14T05:23:05.919Z,43.20
2018-04-14T05:23:37.657Z,43.30
2018-04-14T05:24:09.410Z,43.30
2018-04-14T05:24:41.341Z,43.30
2018-04-14T05:25:13.086Z,43.40
2018-04-14T05:25:44.864Z,43.20
2018-04-14T05:26:16.584Z,43.10
2018-04-14T05:26:48.322Z,43.20
2018-04-14T05:27:20.079Z,43.30
2018-04-14T05:27:51.813Z,43.30
2018-04-14T05:28:23.569Z,43.30
2018-04-14T05:28:55.299Z,43.20
2018-04-14T05:29:27.048Z,43.20
2018-04-14T05:29:58.786Z,43.20
2018-04-14T05:30:30.533Z,43.00
2018-04-14T05:31:02.277Z,43.10
2018-04-14T05:31:34.026Z,43.10
2018-04-14T05:32:05.957Z,43.20
2018-04-14T05:32:37.691Z,43.30
2018-04-14T05:33:09.432Z,43.50
2018-04-14T05:33:41.174Z,43.30
2018-04-14T05:34:12.906Z,43.20
2018-04-14T05:34:44.637Z,43.20
2018-04-14T05:35:16.378Z,43.10
2018-04-14T05:35:48.887Z,43.00
2018-04-14T05:36:20.619Z,43.00
2018-04-14T05:36:52.368Z,43.10
2018-04-14T05:37:24.130Z,43.20
2018-04-14T05:37:55.869Z,43.00
2018-04-14T05:38:27.612Z,43.00
2018-04-14T05:38:59.359Z,43.00
2018-04-14T05:39:31.103Z,43.00
2018-04-14T05:40:02.882Z,43.10
2018-04-14T05:40:35.402Z,43.40
2018-04-14T05:41:07.152Z,43.40
2018-04-14T05:41:38.897Z,43.30
2018-04-14T05:42:10.646Z,43.50
2018-04-14T05:42:42.434Z,43.90
2018-04-14T05:43:14.313Z,44.00
2018-04-14T05:43:46.111Z,44.00
2018-04-14T05:44:17.875Z,44.20
2018-04-14T05:44:50.395Z,44.70
2018-04-14T05:45:22.122Z,44.20
2018-04-14T05:45:53.864Z,43.80
2018-04-14T05:46:25.622Z,43.80
2018-04-14T05:46:57.366Z,43.70
2018-04-14T05:47:29.083Z,43.60
2018-04-14T05:48:00.824Z,43.60
2018-04-14T05:48:32.559Z,43.60
2018-04-14T05:49:04.301Z,43.60
2018-04-14T05:49:36.055Z,43.60
2018-04-14T05:50:07.791Z,43.80
2018-04-14T05:50:39.613Z,43.50
2018-04-14T05:51:11.352Z,43.40
2018-04-14T05:51:43.083Z,44.10
2018-04-14T05:52:14.844Z,43.30
2018-04-14T05:52:46.590Z,43.50
2018-04-14T05:53:18.317Z,43.30
2018-04-14T05:53:50.063Z,43.00
2018-04-14T05:54:21.795Z,43.20
2018-04-14T05:54:53.537Z,43.30
2018-04-14T05:55:25.274Z,43.20
2018-04-14T05:55:57.007Z,43.20
2018-04-14T05:56:28.756Z,43.20
2018-04-14T05:57:00.478Z,43.20
2018-04-14T05:57:32.221Z,42.90
2018-04-14T05:58:03.964Z,42.90
2018-04-14T05:58:35.695Z,43.00
2018-04-14T05:59:07.444Z,43.20
2018-04-14T05:59:39.177Z,43.20
2018-04-14T06:00:11.724Z,43.00
2018-04-14T06:00:43.665Z,42.90
2018-04-14T06:01:15.603Z,42.90
2018-04-14T06:01:47.343Z,43.00
2018-04-14T06:02:19.098Z,43.10
2018-04-14T06:02:50.834Z,43.00
2018-04-14T06:03:22.576Z,43.10
2018-04-14T06:03:54.336Z,43.00
2018-04-14T06:04:26.086Z,43.10
2018-04-14T06:04:57.818Z,43.10
2018-04-14T06:05:29.573Z,43.10
2018-04-14T06:06:01.321Z,43.70
2018-04-14T06:06:33.846Z,43.40
2018-04-14T06:07:05.579Z,43.40
2018-04-14T06:07:37.331Z,43.80
2018-04-14T06:08:09.064Z,44.20
2018-04-14T06:08:40.798Z,45.00
2018-04-14T06:09:12.557Z,45.90
2018-04-14T06:09:44.486Z,45.90
2018-04-14T06:10:16.226Z,46.80
2018-04-14T06:10:48.740Z,46.60
2018-04-14T06:11:20.511Z,46.60
2018-04-14T06:11:52.239Z,46.00
2018-04-14T06:12:23.980Z,45.70
2018-04-14T06:12:55.731Z,46.50
2018-04-14T06:13:27.478Z,46.00
2018-04-14T06:13:59.976Z,46.10
2018-04-14T06:14:31.709Z,46.10
2018-04-14T06:15:04.228Z,45.30
2018-04-14T06:15:35.982Z,45.40
2018-04-14T06:16:07.729Z,46.10
2018-04-14T06:16:39.466Z,45.80
2018-04-14T06:17:11.220Z,45.30
2018-04-14T06:17:42.974Z,45.80
2018-04-14T06:18:14.713Z,45.60
2018-04-14T06:18:46.455Z,45.80
2018-04-14T06:19:18.310Z,45.00
2018-04-14T06:19:50.041Z,45.60
2018-04-14T06:20:21.777Z,45.70
2018-04-14T06:20:53.558Z,45.70
2018-04-14T06:21:26.091Z,46.00
2018-04-14T06:21:57.842Z,46.00
2018-04-14T06:22:29.591Z,45.00
2018-04-14T06:23:01.321Z,45.50
2018-04-14T06:23:33.181Z,44.50
2018-04-14T06:24:04.939Z,44.50
2018-04-14T06:24:37.446Z,45.10
2018-04-14T06:25:09.183Z,45.10
2018-04-14T06:25:40.955Z,45.50
2018-04-14T06:26:12.673Z,44.90
2018-04-14T06:26:44.410Z,45.40
2018-04-14T06:27:16.153Z,44.20
2018-04-14T06:27:47.902Z,45.30
2018-04-14T06:28:19.647Z,46.00
2018-04-14T06:28:51.380Z,45.10
2018-04-14T06:29:23.138Z,44.80
2018-04-14T06:29:54.875Z,45.00
2018-04-14T06:30:26.631Z,45.40
2018-04-14T06:30:58.379Z,45.80
2018-04-14T06:31:30.123Z,45.20
2018-04-14T06:32:01.860Z,46.10
2018-04-14T06:32:33.658Z,45.80
2018-04-14T06:33:05.573Z,44.00
2018-04-14T06:33:37.302Z,44.10
2018-04-14T06:34:09.051Z,44.30
2018-04-14T06:34:40.785Z,46.40
2018-04-14T06:35:12.526Z,46.50
2018-04-14T06:35:44.283Z,46.30
2018-04-14T06:36:16.025Z,45.00
2018-04-14T06:36:47.791Z,45.30
2018-04-14T06:37:19.528Z,45.40
2018-04-14T06:37:52.204Z,44.70
2018-04-14T06:38:23.972Z,44.70
2018-04-14T06:38:55.707Z,44.00
2018-04-14T06:39:27.450Z,45.20
2018-04-14T06:39:59.224Z,44.60
2018-04-14T06:40:31.717Z,44.30
2018-04-14T06:41:03.463Z,44.30
2018-04-14T06:41:35.220Z,44.00
2018-04-14T06:42:06.986Z,44.70
2018-04-14T06:42:38.737Z,44.70
2018-04-14T06:43:10.473Z,45.00
2018-04-14T06:43:42.206Z,43.60
2018-04-14T06:44:14.037Z,44.90
2018-04-14T06:44:46.038Z,45.10
2018-04-14T06:45:18.553Z,44.60
2018-04-14T06:45:50.305Z,44.50
2018-04-14T06:46:22.093Z,44.90
2018-04-14T06:46:54.019Z,44.70
2018-04-14T06:47:25.763Z,44.60
2018-04-14T06:47:57.519Z,44.10
2018-04-14T06:48:29.277Z,44.10
2018-04-14T06:49:01.796Z,44.20
2018-04-14T06:49:33.541Z,44.30
2018-04-14T06:50:05.303Z,44.80